createdAt,value
2016-12-25T00:11:10.770Z,7.90
2016-12-25T02:42:52.995Z,7.99
2016-12-25T02:44:28.146Z,7.98
2016-12-25T02:54:16.012Z,8.01
2016-12-25T03:49:09.048Z,7.96
2016-12-25T04:13:51.523Z,7.89
2016-12-25T04:13:52.071Z,7.87
2016-12-25T04:20:28.663Z,7.86
2016-12-25T04:25:58.027Z,7.93
2016-12-25T04:27:58.212Z,7.95
2016-12-25T04:31:06.940Z,7.96
2016-12-25T04:41:45.443Z,7.91
2016-12-25T04:44:53.708Z,7.93
2016-12-25T04:51:04.286Z,7.96
2016-12-25T05:00:45.852Z,7.98
2016-12-25T05:08:05.512Z,8.00
2016-12-25T05:10:50.706Z,7.98
2016-12-25T05:13:37.331Z,8.01
2016-12-25T05:18:25.520Z,8.03
2016-12-25T05:19:04.459Z,8.01
2016-12-25T05:24:04.843Z,8.05
2016-12-25T05:32:13.065Z,8.03
2016-12-25T06:18:12.218Z,8.16
2016-12-25T06:28:10.940Z,8.19
2016-12-25T06:29:52.261Z,8.21
2016-12-25T06:34:17.728Z,8.21
2016-12-25T06:34:54.757Z,8.19
2016-12-25T06:39:25.432Z,8.22
2016-12-25T06:41:54.807Z,8.21
2016-12-25T06:42:28.054Z,8.19
2016-12-25T06:44:37.781Z,8.23
2016-12-25T06:45:48.339Z,8.25
2016-12-25T06:46:56.669Z,8.25
2016-12-25T06:47:59.990Z,8.23
2016-12-25T06:48:29.378Z,8.23
2016-12-25T06:49:01.230Z,8.22
2016-12-25T06:49:33.586Z,8.23
2016-12-25T06:50:31.185Z,8.20
2016-12-25T06:51:00.729Z,8.21
2016-12-25T06:52:37.374Z,8.22
2016-12-25T06:57:06.913Z,8.24
2016-12-25T06:59:18.204Z,8.25
2016-12-25T07:00:23.715Z,8.27
2016-12-25T07:02:03.700Z,8.25
2016-12-25T07:03:02.968Z,8.25
2016-12-25T07:03:29.481Z,8.25
2016-12-25T07:04:28.257Z,8.26
2016-12-25T07:04:54.767Z,8.25
2016-12-25T07:05:17.512Z,8.25
2016-12-25T07:05:39.259Z,8.26
2016-12-25T07:06:02.027Z,8.26
2016-12-25T07:06:55.085Z,8.25
2016-12-25T07:07:16.838Z,8.26
2016-12-25T07:07:38.590Z,8.26
2016-12-25T07:08:05.096Z,8.25
2016-12-25T07:08:28.833Z,8.27
2016-12-25T07:08:50.572Z,8.25
2016-12-25T07:09:21.871Z,8.26
2016-12-25T07:12:54.737Z,8.23
2016-12-25T07:17:26.868Z,8.26
2016-12-25T07:43:31.510Z,8.19
2016-12-25T07:43:53.265Z,8.19
2016-12-25T07:44:16.198Z,8.17
2016-12-25T07:44:37.977Z,8.18
2016-12-25T07:56:09.395Z,8.09
2016-12-25T08:16:43.000Z,7.95
2016-12-25T08:56:59.980Z,8.27
2016-12-25T08:57:21.889Z,8.28
2016-12-25T08:57:43.663Z,8.28
2016-12-25T08:58:05.425Z,8.27
2016-12-25T08:58:27.165Z,8.27
2016-12-25T08:58:48.917Z,8.28
2016-12-25T08:59:41.930Z,8.30
2016-12-25T09:00:03.717Z,8.30
2016-12-25T09:00:25.448Z,8.30
2016-12-25T09:00:47.182Z,8.31
2016-12-25T09:01:08.940Z,8.31
2016-12-25T09:01:30.681Z,8.32
2016-12-25T09:01:52.425Z,8.31
2016-12-25T09:02:14.171Z,8.29
2016-12-25T09:02:35.918Z,8.31
2016-12-25T09:03:02.425Z,8.31
2016-12-25T09:03:24.156Z,8.31
2016-12-25T09:03:45.924Z,8.31
2016-12-25T09:04:07.683Z,8.31
2016-12-25T09:04:34.200Z,8.32
2016-12-25T09:04:55.944Z,8.34
2016-12-25T09:05:17.679Z,8.33
2016-12-25T09:05:39.419Z,8.34
2016-12-25T09:06:01.173Z,8.33
2016-12-25T09:06:23.480Z,8.31
2016-12-25T09:06:45.633Z,8.31
2016-12-25T09:07:07.377Z,8.32
2016-12-25T09:07:33.885Z,8.32
2016-12-25T09:07:55.663Z,8.32
2016-12-25T09:08:17.486Z,8.32
2016-12-25T09:08:39.250Z,8.33
2016-12-25T09:09:01.013Z,8.32
2016-12-25T09:09:27.860Z,8.35
2016-12-25T09:09:50.341Z,8.36
2016-12-25T09:10:12.082Z,8.35
2016-12-25T09:10:33.849Z,8.35
2016-12-25T09:10:55.821Z,8.35
2016-12-25T09:11:22.723Z,8.35
2016-12-25T09:11:44.648Z,8.37
2016-12-25T09:12:06.766Z,8.36
2016-12-25T09:12:28.513Z,8.36
2016-12-25T09:12:50.276Z,8.37
2016-12-25T09:13:12.039Z,8.37
2016-12-25T09:13:33.798Z,8.36
2016-12-25T09:13:55.545Z,8.36
2016-12-25T09:14:17.314Z,8.38
2016-12-25T09:14:39.069Z,8.39
2016-12-25T09:15:00.818Z,8.40
2016-12-25T09:15:22.690Z,8.39
2016-12-25T09:15:44.446Z,8.38
2016-12-25T09:16:06.206Z,8.40
2016-12-25T09:16:27.968Z,8.39
2016-12-25T09:16:49.946Z,8.39
2016-12-25T09:17:12.453Z,8.38
2016-12-25T09:17:38.962Z,8.39
2016-12-25T09:18:00.830Z,8.39
2016-12-25T09:18:22.583Z,8.38
2016-12-25T09:18:44.351Z,8.38
2016-12-25T09:19:06.114Z,8.39
2016-12-25T09:19:27.898Z,8.41
2016-12-25T09:19:49.642Z,8.40
2016-12-25T09:20:11.410Z,8.41
2016-12-25T09:20:33.141Z,8.40
2016-12-25T09:20:54.886Z,8.38
2016-12-25T09:21:17.224Z,8.40
2016-12-25T09:21:39.794Z,8.42
2016-12-25T09:22:01.502Z,8.42
2016-12-25T09:22:28.003Z,8.43
2016-12-25T09:22:49.762Z,8.42
2016-12-25T09:23:11.545Z,8.42
2016-12-25T09:23:38.076Z,8.42
2016-12-25T09:24:00.809Z,8.42
2016-12-25T09:24:22.558Z,8.43
2016-12-25T09:24:44.297Z,8.44
2016-12-25T09:25:06.092Z,8.46
2016-12-25T09:25:27.846Z,8.47
2016-12-25T09:25:49.585Z,8.47
2016-12-25T09:26:11.395Z,8.49
2016-12-25T09:26:33.190Z,8.48
2016-12-25T09:26:54.972Z,8.47
2016-12-25T09:27:17.872Z,8.49
2016-12-25T09:27:39.619Z,8.47
2016-12-25T09:28:01.396Z,8.49
2016-12-25T09:28:23.137Z,8.51
2016-12-25T09:28:44.908Z,8.52
2016-12-25T09:29:07.668Z,8.53
2016-12-25T09:29:30.760Z,8.54
2016-12-25T09:29:52.518Z,8.54
2016-12-25T09:30:14.289Z,8.53
2016-12-25T09:30:36.042Z,8.54
2016-12-25T09:30:57.804Z,8.54
2016-12-25T09:31:19.550Z,8.53
2016-12-25T09:31:41.353Z,8.54
2016-12-25T09:32:03.091Z,8.53
2016-12-25T09:32:24.858Z,8.55
2016-12-25T09:32:46.631Z,8.53
2016-12-25T09:33:08.383Z,8.53
2016-12-25T09:33:31.196Z,8.54
2016-12-25T09:33:53.448Z,8.53
2016-12-25T09:34:15.464Z,8.55
2016-12-25T09:34:42.142Z,8.54
2016-12-25T09:35:04.360Z,8.53
2016-12-25T09:35:26.335Z,8.53
2016-12-25T09:35:48.305Z,8.55
2016-12-25T09:36:10.088Z,8.54
2016-12-25T09:36:33.842Z,8.54
2016-12-25T09:36:56.591Z,8.55
2016-12-25T09:37:18.418Z,8.55
2016-12-25T09:37:40.364Z,8.56
2016-12-25T09:38:02.118Z,8.55
2016-12-25T09:38:23.878Z,8.56
2016-12-25T09:38:45.629Z,8.57
2016-12-25T09:39:07.372Z,8.57
2016-12-25T09:39:29.128Z,8.56
2016-12-25T09:39:50.877Z,8.58
2016-12-25T09:40:12.616Z,8.57
2016-12-25T09:40:34.388Z,8.57
2016-12-25T09:40:56.109Z,8.56
2016-12-25T09:41:17.879Z,8.56
2016-12-25T09:41:39.635Z,8.56
2016-12-25T09:42:01.558Z,8.58
2016-12-25T09:42:23.304Z,8.58
2016-12-25T09:42:45.043Z,8.59
2016-12-25T09:43:07.797Z,8.60
2016-12-25T09:43:29.759Z,8.60
2016-12-25T09:43:51.605Z,8.61
2016-12-25T09:44:13.338Z,8.59
2016-12-25T09:44:35.078Z,8.60
2016-12-25T09:44:56.825Z,8.60
2016-12-25T09:45:18.573Z,8.60
2016-12-25T09:45:40.338Z,8.59
2016-12-25T09:46:02.079Z,8.59
2016-12-25T09:46:23.833Z,8.58
2016-12-25T09:46:45.594Z,8.59
2016-12-25T09:47:07.419Z,8.62
2016-12-25T09:47:29.133Z,8.62
2016-12-25T09:47:50.962Z,8.60
2016-12-25T09:48:12.724Z,8.61
2016-12-25T09:48:34.614Z,8.62
2016-12-25T09:48:57.452Z,8.62
2016-12-25T09:49:19.192Z,8.59
2016-12-25T09:49:40.959Z,8.62
2016-12-25T09:50:02.708Z,8.61
2016-12-25T09:50:24.442Z,8.63
2016-12-25T09:50:46.175Z,8.62
2016-12-25T09:51:35.420Z,8.65
2016-12-25T09:51:57.163Z,8.64
2016-12-25T09:52:18.927Z,8.63
2016-12-25T09:52:40.665Z,8.63
2016-12-25T09:53:02.409Z,8.64
2016-12-25T09:53:24.154Z,8.64
2016-12-25T09:53:45.907Z,8.64
2016-12-25T09:54:07.637Z,8.64
2016-12-25T09:54:29.473Z,8.63
2016-12-25T09:54:51.646Z,8.64
2016-12-25T09:55:13.916Z,8.62
2016-12-25T09:56:07.977Z,8.61
2016-12-25T09:56:29.812Z,8.62
2016-12-25T09:56:51.764Z,8.62
2016-12-25T09:57:14.611Z,8.63
2016-12-25T09:57:37.042Z,8.64
2016-12-25T09:57:59.165Z,8.64
2016-12-25T09:58:21.073Z,8.63
2016-12-25T09:58:42.808Z,8.64
2016-12-25T09:59:04.587Z,8.63
2016-12-25T09:59:26.332Z,8.63
2016-12-25T09:59:48.076Z,8.63
2016-12-25T10:00:09.867Z,8.64
2016-12-25T10:00:31.606Z,8.65
2016-12-25T10:00:53.405Z,8.64
2016-12-25T10:01:15.163Z,8.64
2016-12-25T10:01:36.907Z,8.65
2016-12-25T10:01:58.658Z,8.64
2016-12-25T10:02:20.398Z,8.64
2016-12-25T10:02:42.170Z,8.65
2016-12-25T10:03:03.937Z,8.64
2016-12-25T10:03:25.685Z,8.66
2016-12-25T10:03:47.586Z,8.65
2016-12-25T10:04:09.328Z,8.65
2016-12-25T10:04:31.083Z,8.64
2016-12-25T10:04:52.824Z,8.64
2016-12-25T10:05:14.563Z,8.64
2016-12-25T10:05:41.068Z,8.65
2016-12-25T10:06:02.818Z,8.66
2016-12-25T10:06:24.617Z,8.65
2016-12-25T10:06:46.351Z,8.69
2016-12-25T10:07:08.092Z,8.67
2016-12-25T10:07:29.846Z,8.68
2016-12-25T10:07:56.348Z,8.68
2016-12-25T10:08:18.118Z,8.68
2016-12-25T10:08:40.071Z,8.70
2016-12-25T10:09:01.871Z,8.71
2016-12-25T10:09:23.612Z,8.70
2016-12-25T10:09:45.339Z,8.71
2016-12-25T10:10:07.071Z,8.73
2016-12-25T10:10:28.819Z,8.77
2016-12-25T10:10:50.885Z,8.76
2016-12-25T10:11:12.771Z,8.79
2016-12-25T10:11:34.523Z,8.79
2016-12-25T10:11:56.257Z,8.77
2016-12-25T10:12:18.007Z,8.76
2016-12-25T10:12:39.746Z,8.76
2016-12-25T10:13:01.489Z,8.76
2016-12-25T10:13:23.234Z,8.74
2016-12-25T10:13:44.966Z,8.72
2016-12-25T10:14:06.775Z,8.71
2016-12-25T10:14:28.515Z,8.72
2016-12-25T10:14:50.283Z,8.74
2016-12-25T10:15:12.011Z,8.73
2016-12-25T10:15:33.743Z,8.73
2016-12-25T10:15:55.495Z,8.73
2016-12-25T10:16:17.290Z,8.72
2016-12-25T10:16:39.049Z,8.71
2016-12-25T10:17:00.797Z,8.72
2016-12-25T10:17:22.592Z,8.73
2016-12-25T10:17:44.319Z,8.73
2016-12-25T10:18:06.078Z,8.73
2016-12-25T10:18:27.860Z,8.72
2016-12-25T10:18:49.602Z,8.74
2016-12-25T10:19:11.369Z,8.74
2016-12-25T10:19:33.118Z,8.74
2016-12-25T10:19:54.892Z,8.74
2016-12-25T10:20:16.677Z,8.75
2016-12-25T10:20:38.411Z,8.74
2016-12-25T10:21:00.155Z,8.74
2016-12-25T10:21:21.904Z,8.76
2016-12-25T10:21:43.779Z,8.74
2016-12-25T10:22:05.727Z,8.77
2016-12-25T10:22:27.647Z,8.77
2016-12-25T10:22:49.444Z,8.81
2016-12-25T10:23:11.215Z,8.81
2016-12-25T10:23:32.962Z,8.79
2016-12-25T10:23:54.704Z,8.78
2016-12-25T10:24:16.446Z,8.80
2016-12-25T10:24:38.188Z,8.80
2016-12-25T10:24:59.946Z,8.78
2016-12-25T10:25:21.685Z,8.79
2016-12-25T10:25:43.511Z,8.79
2016-12-25T10:26:05.265Z,8.78
2016-12-25T10:26:26.997Z,8.78
2016-12-25T10:26:53.516Z,8.78
2016-12-25T10:27:15.248Z,8.78
2016-12-25T10:27:37.030Z,8.79
2016-12-25T10:27:58.782Z,8.78
2016-12-25T10:28:20.530Z,8.78
2016-12-25T10:28:42.321Z,8.79
2016-12-25T10:29:04.060Z,8.78
2016-12-25T10:29:25.809Z,8.79
2016-12-25T10:29:47.577Z,8.79
2016-12-25T10:30:09.311Z,8.80
2016-12-25T10:30:31.127Z,8.79
2016-12-25T10:30:53.027Z,8.77
2016-12-25T10:31:15.003Z,8.80
2016-12-25T10:31:36.732Z,8.81
2016-12-25T10:31:58.465Z,8.80
2016-12-25T10:32:20.223Z,8.81
2016-12-25T10:32:41.978Z,8.80
2016-12-25T10:33:04.727Z,8.81
2016-12-25T10:33:27.052Z,8.81
2016-12-25T10:33:48.818Z,8.81
2016-12-25T10:34:10.561Z,8.79
2016-12-25T10:34:32.328Z,8.78
2016-12-25T10:34:54.080Z,8.78
2016-12-25T10:35:15.880Z,8.78
2016-12-25T10:35:37.619Z,8.79
2016-12-25T10:35:59.358Z,8.81
2016-12-25T10:36:21.145Z,8.80
2016-12-25T10:36:42.890Z,8.80
2016-12-25T10:37:04.620Z,8.83
2016-12-25T10:37:26.376Z,8.82
2016-12-25T10:37:48.119Z,8.83
2016-12-25T10:38:09.930Z,8.83
2016-12-25T10:38:31.718Z,8.84
2016-12-25T10:38:53.453Z,8.83
2016-12-25T10:39:15.191Z,8.83
2016-12-25T10:39:37.112Z,8.84
2016-12-25T10:39:58.949Z,8.82
2016-12-25T10:40:25.533Z,8.84
2016-12-25T10:40:47.292Z,8.84
2016-12-25T10:41:09.033Z,8.86
2016-12-25T10:41:30.779Z,8.87
2016-12-25T10:41:52.567Z,8.85
2016-12-25T10:42:14.322Z,8.87
2016-12-25T10:42:36.072Z,8.87
2016-12-25T10:42:57.822Z,8.85
2016-12-25T10:43:19.588Z,8.86
2016-12-25T10:43:41.354Z,8.84
2016-12-25T10:44:03.108Z,8.86
2016-12-25T10:44:24.872Z,8.85
2016-12-25T10:44:46.844Z,8.85
2016-12-25T10:45:11.896Z,8.86
2016-12-25T10:45:33.737Z,8.88
2016-12-25T10:45:55.471Z,8.88
2016-12-25T10:46:17.222Z,8.90
2016-12-25T10:46:38.962Z,8.88
2016-12-25T10:47:00.729Z,8.87
2016-12-25T10:47:22.463Z,8.87
2016-12-25T10:47:44.210Z,8.87
2016-12-25T10:48:05.953Z,8.89
2016-12-25T10:48:27.693Z,8.88
2016-12-25T10:48:50.492Z,8.89
2016-12-25T10:49:12.232Z,8.89
2016-12-25T10:49:33.974Z,8.89
2016-12-25T10:49:55.728Z,8.89
2016-12-25T10:50:17.478Z,8.90
2016-12-25T10:50:39.245Z,8.91
2016-12-25T10:51:01.046Z,8.91
2016-12-25T10:51:22.780Z,8.92
2016-12-25T10:51:44.730Z,8.91
2016-12-25T10:52:06.597Z,8.91
2016-12-25T10:52:28.327Z,8.89
2016-12-25T10:52:50.100Z,8.91
2016-12-25T10:53:11.901Z,8.90
2016-12-25T10:53:33.667Z,8.90
2016-12-25T10:53:55.547Z,8.92
2016-12-25T10:54:17.939Z,8.94
2016-12-25T10:54:39.671Z,8.97
2016-12-25T10:55:01.409Z,8.95
2016-12-25T10:55:23.150Z,8.94
2016-12-25T10:55:44.901Z,8.95
2016-12-25T10:56:06.657Z,8.95
2016-12-25T10:56:28.393Z,8.95
2016-12-25T10:56:50.142Z,8.93
2016-12-25T10:57:11.876Z,8.95
2016-12-25T10:57:33.615Z,8.95
2016-12-25T10:57:55.416Z,8.95
2016-12-25T10:58:17.165Z,8.94
2016-12-25T10:58:38.928Z,8.92
2016-12-25T10:59:00.680Z,8.92
2016-12-25T10:59:22.422Z,8.93
2016-12-25T10:59:44.151Z,8.93
2016-12-25T11:00:05.903Z,8.94
2016-12-25T11:00:27.784Z,8.97
2016-12-25T11:00:50.564Z,8.96
2016-12-25T11:01:12.339Z,8.95
2016-12-25T11:01:34.134Z,8.94
2016-12-25T11:01:55.896Z,8.96
2016-12-25T11:02:17.632Z,8.96
2016-12-25T11:02:39.374Z,8.95
2016-12-25T11:03:01.142Z,8.95
2016-12-25T11:03:22.883Z,8.93
2016-12-25T11:03:49.395Z,8.93
2016-12-25T11:04:11.179Z,8.93
2016-12-25T11:04:32.928Z,8.94
2016-12-25T11:04:54.675Z,8.93
2016-12-25T11:05:16.425Z,8.96
2016-12-25T11:05:47.714Z,8.96
2016-12-25T11:06:09.469Z,8.96
2016-12-25T11:06:31.280Z,8.97
2016-12-25T11:06:53.018Z,8.96
2016-12-25T11:07:14.769Z,8.96
2016-12-25T11:07:36.535Z,8.94
2016-12-25T11:07:58.291Z,8.97
2016-12-25T11:08:20.068Z,8.94
2016-12-25T11:08:41.834Z,8.97
2016-12-25T11:09:03.607Z,8.95
2016-12-25T11:09:26.370Z,8.96
2016-12-25T11:09:48.138Z,8.95
2016-12-25T11:10:09.878Z,8.95
2016-12-25T11:10:31.659Z,8.95
2016-12-25T11:10:58.206Z,8.96
2016-12-25T11:11:19.950Z,8.96
2016-12-25T11:11:41.688Z,8.96
2016-12-25T11:12:03.543Z,8.98
2016-12-25T11:12:25.307Z,8.96
2016-12-25T11:12:47.048Z,8.96
2016-12-25T11:13:08.788Z,8.99
2016-12-25T11:13:30.563Z,9.00
2016-12-25T11:13:52.302Z,9.00
2016-12-25T11:14:14.185Z,8.99
2016-12-25T11:14:40.577Z,8.99
2016-12-25T11:15:07.089Z,8.97
2016-12-25T11:15:28.825Z,8.98
2016-12-25T11:15:50.567Z,8.96
2016-12-25T11:16:12.327Z,8.97
2016-12-25T11:16:34.065Z,8.97
2016-12-25T11:16:55.805Z,8.98
2016-12-25T11:17:17.567Z,8.97
2016-12-25T11:17:39.351Z,8.99
2016-12-25T11:18:27.615Z,9.01
2016-12-25T11:18:49.368Z,9.00
2016-12-25T11:19:11.169Z,9.01
2016-12-25T11:19:33.047Z,9.00
2016-12-25T11:19:54.806Z,9.01
2016-12-25T11:20:16.581Z,9.01
2016-12-25T11:20:38.323Z,9.01
2016-12-25T11:21:00.116Z,9.00
2016-12-25T11:21:21.847Z,8.99
2016-12-25T11:21:43.594Z,8.98
2016-12-25T11:22:05.774Z,8.97
2016-12-25T11:22:27.619Z,9.01
2016-12-25T11:22:49.401Z,9.00
2016-12-25T11:23:11.258Z,9.02
2016-12-25T11:23:33.015Z,9.03
2016-12-25T11:23:54.772Z,9.06
2016-12-25T11:24:16.512Z,9.03
2016-12-25T11:24:38.272Z,9.02
2016-12-25T11:25:26.539Z,9.03
2016-12-25T11:25:48.278Z,9.02
2016-12-25T11:26:10.024Z,9.05
2016-12-25T11:26:58.294Z,9.05
2016-12-25T11:27:20.029Z,9.05
2016-12-25T11:27:41.772Z,9.04
2016-12-25T11:28:08.290Z,9.03
2016-12-25T11:28:30.055Z,9.02
2016-12-25T11:28:51.826Z,9.03
2016-12-25T11:29:13.564Z,9.01
2016-12-25T11:29:35.300Z,9.03
2016-12-25T11:29:57.077Z,9.02
2016-12-25T11:30:19.795Z,9.03
2016-12-25T11:30:41.662Z,9.03
2016-12-25T11:31:03.413Z,9.05
2016-12-25T11:31:25.208Z,9.04
2016-12-25T11:31:46.972Z,9.03
2016-12-25T11:32:08.797Z,9.02
2016-12-25T11:32:30.537Z,9.02
2016-12-25T11:32:52.299Z,9.04
2016-12-25T11:33:14.037Z,9.04
2016-12-25T11:33:35.960Z,9.04
2016-12-25T11:33:58.123Z,9.05
2016-12-25T11:34:48.757Z,9.05
2016-12-25T11:35:16.268Z,9.06
2016-12-25T11:35:42.781Z,9.04
2016-12-25T11:36:04.565Z,9.06
2016-12-25T11:36:26.307Z,9.06
2016-12-25T11:36:49.050Z,9.06
2016-12-25T11:37:10.808Z,9.05
2016-12-25T11:37:32.558Z,9.04
2016-12-25T11:37:54.515Z,9.05
2016-12-25T11:38:16.528Z,9.06
2016-12-25T11:38:38.372Z,9.06
2016-12-25T11:39:00.121Z,9.06
2016-12-25T11:39:21.872Z,9.06
2016-12-25T11:39:43.613Z,9.07
2016-12-25T11:40:05.476Z,9.09
2016-12-25T11:40:27.275Z,9.08
2016-12-25T11:40:49.025Z,9.08
2016-12-25T11:41:11.811Z,9.09
2016-12-25T11:41:33.557Z,9.09
2016-12-25T11:41:55.300Z,9.08
2016-12-25T11:42:17.120Z,9.09
2016-12-25T11:42:38.910Z,9.09
2016-12-25T11:43:00.706Z,9.10
2016-12-25T11:43:22.458Z,9.08
2016-12-25T11:43:45.201Z,9.06
2016-12-25T11:44:06.964Z,9.07
2016-12-25T11:44:28.710Z,9.08
2016-12-25T11:44:50.541Z,9.10
2016-12-25T11:45:12.285Z,9.10
2016-12-25T11:45:34.025Z,9.11
2016-12-25T11:45:55.760Z,9.12
2016-12-25T11:46:17.540Z,9.11
2016-12-25T11:46:39.326Z,9.09
2016-12-25T11:47:01.074Z,9.09
2016-12-25T11:47:22.823Z,9.11
2016-12-25T11:47:44.618Z,9.12
2016-12-25T11:48:06.717Z,9.13
2016-12-25T11:48:28.589Z,9.12
2016-12-25T11:48:50.410Z,9.12
2016-12-25T11:49:12.175Z,9.10
2016-12-25T11:49:33.892Z,9.08
2016-12-25T11:50:00.439Z,9.10
2016-12-25T11:50:23.180Z,9.10
2016-12-25T11:50:44.926Z,9.11
2016-12-25T11:51:06.666Z,9.11
2016-12-25T11:51:28.421Z,9.10
2016-12-25T11:51:54.938Z,9.13
2016-12-25T11:52:16.676Z,9.12
2016-12-25T11:52:38.419Z,9.12
2016-12-25T11:53:00.205Z,9.12
2016-12-25T11:53:24.562Z,9.12
2016-12-25T11:53:46.370Z,9.13
2016-12-25T11:54:08.113Z,9.15
2016-12-25T11:54:32.590Z,9.14
2016-12-25T11:54:54.440Z,9.14
2016-12-25T11:55:16.402Z,9.16
2016-12-25T11:55:38.149Z,9.17
2016-12-25T11:56:00.889Z,9.17
2016-12-25T11:56:22.683Z,9.17
2016-12-25T11:56:44.432Z,9.16
2016-12-25T11:57:06.299Z,9.17
2016-12-25T11:57:28.034Z,9.15
2016-12-25T11:57:49.779Z,9.17
2016-12-25T11:58:11.506Z,9.18
2016-12-25T11:58:33.262Z,9.15
2016-12-25T11:58:55.001Z,9.15
2016-12-25T11:59:16.778Z,9.15
2016-12-25T11:59:38.526Z,9.15
2016-12-25T12:00:00.264Z,9.14
2016-12-25T12:00:22.020Z,9.13
2016-12-25T12:00:43.786Z,9.14
2016-12-25T12:01:05.628Z,9.12
2016-12-25T12:01:27.360Z,9.15
2016-12-25T12:01:49.082Z,9.15
2016-12-25T12:02:10.836Z,9.17
2016-12-25T12:02:32.584Z,9.16
2016-12-25T12:02:54.372Z,9.16
2016-12-25T12:03:16.102Z,9.15
2016-12-25T12:03:38.096Z,9.15
2016-12-25T12:04:00.019Z,9.17
2016-12-25T12:04:21.748Z,9.17
2016-12-25T12:04:43.593Z,9.17
2016-12-25T12:05:05.331Z,9.19
2016-12-25T12:05:27.085Z,9.19
2016-12-25T12:05:48.822Z,9.22
2016-12-25T12:06:10.569Z,9.20
2016-12-25T12:06:32.304Z,9.20
2016-12-25T12:06:54.047Z,9.19
2016-12-25T12:07:15.788Z,9.18
2016-12-25T12:07:37.547Z,9.18
2016-12-25T12:07:59.282Z,9.17
2016-12-25T12:08:23.831Z,9.20
2016-12-25T12:08:45.675Z,9.23
2016-12-25T12:09:07.450Z,9.25
2016-12-25T12:09:29.199Z,9.25
2016-12-25T12:09:50.935Z,9.21
2016-12-25T12:10:12.670Z,9.22
2016-12-25T12:10:34.421Z,9.19
2016-12-25T12:10:56.156Z,9.20
2016-12-25T12:11:17.902Z,9.21
2016-12-25T12:11:39.666Z,9.21
2016-12-25T12:12:01.413Z,9.20
2016-12-25T12:12:23.165Z,9.19
2016-12-25T12:12:44.966Z,9.19
2016-12-25T12:13:06.717Z,9.19
2016-12-25T12:13:28.677Z,9.20
2016-12-25T12:13:50.450Z,9.19
2016-12-25T12:14:12.204Z,9.21
2016-12-25T12:14:33.955Z,9.20
2016-12-25T12:14:55.719Z,9.21
2016-12-25T12:15:44.012Z,9.21
2016-12-25T12:16:05.763Z,9.19
2016-12-25T12:16:27.535Z,9.20
2016-12-25T12:16:49.278Z,9.20
2016-12-25T12:17:11.019Z,9.18
2016-12-25T12:17:32.758Z,9.18
2016-12-25T12:17:54.504Z,9.19
2016-12-25T12:18:16.251Z,9.20
2016-12-25T12:18:38.807Z,9.22
2016-12-25T12:19:01.141Z,9.20
2016-12-25T12:19:23.239Z,9.22
2016-12-25T12:19:45.107Z,9.26
2016-12-25T12:20:09.564Z,9.26
2016-12-25T12:20:31.353Z,9.24
2016-12-25T12:20:53.091Z,9.24
2016-12-25T12:21:14.864Z,9.23
2016-12-25T12:21:36.605Z,9.23
2016-12-25T12:21:58.352Z,9.20
2016-12-25T12:22:20.138Z,9.20
2016-12-25T12:22:41.878Z,9.20
2016-12-25T12:23:03.632Z,9.21
2016-12-25T12:23:25.400Z,9.20
2016-12-25T12:23:47.384Z,9.22
2016-12-25T12:24:09.141Z,9.21
2016-12-25T12:24:30.870Z,9.22
2016-12-25T12:24:52.603Z,9.23
2016-12-25T12:25:14.342Z,9.24
2016-12-25T12:25:40.849Z,9.23
2016-12-25T12:26:02.652Z,9.22
2016-12-25T12:26:24.567Z,9.23
2016-12-25T12:26:46.594Z,9.20
2016-12-25T12:27:08.603Z,9.23
2016-12-25T12:27:30.531Z,9.25
2016-12-25T12:27:52.310Z,9.23
2016-12-25T12:28:14.056Z,9.22
2016-12-25T12:28:35.800Z,9.22
2016-12-25T12:28:57.588Z,9.22
2016-12-25T12:29:19.333Z,9.21
2016-12-25T12:29:41.097Z,9.22
2016-12-25T12:30:02.865Z,9.22
2016-12-25T12:30:24.874Z,9.22
2016-12-25T12:30:46.627Z,9.20
2016-12-25T12:31:08.366Z,9.19
2016-12-25T12:31:30.110Z,9.20
2016-12-25T12:31:51.865Z,9.20
2016-12-25T12:32:13.664Z,9.18
2016-12-25T12:32:35.459Z,9.20
2016-12-25T12:32:57.194Z,9.20
2016-12-25T12:33:18.925Z,9.22
2016-12-25T12:33:41.671Z,9.20
2016-12-25T12:34:03.426Z,9.19
2016-12-25T12:34:25.164Z,9.20
2016-12-25T12:34:47.025Z,9.23
2016-12-25T12:35:08.922Z,9.22
2016-12-25T12:35:30.685Z,9.22
2016-12-25T12:35:52.599Z,9.22
2016-12-25T12:36:14.355Z,9.20
2016-12-25T12:36:36.094Z,9.21
2016-12-25T12:36:57.842Z,9.20
2016-12-25T12:37:19.571Z,9.19
2016-12-25T12:37:41.329Z,9.20
2016-12-25T12:38:03.077Z,9.19
2016-12-25T12:38:24.811Z,9.20
2016-12-25T12:38:46.625Z,9.19
2016-12-25T12:39:08.398Z,9.19
2016-12-25T12:39:30.184Z,9.21
2016-12-25T12:39:51.926Z,9.20
2016-12-25T12:40:13.665Z,9.20
2016-12-25T12:40:35.417Z,9.18
2016-12-25T12:41:01.977Z,9.19
2016-12-25T12:41:24.723Z,9.18
2016-12-25T12:41:46.467Z,9.18
2016-12-25T12:42:08.282Z,9.19
2016-12-25T12:42:30.027Z,9.20
2016-12-25T12:42:51.840Z,9.19
2016-12-25T12:43:13.578Z,9.19
2016-12-25T12:43:35.322Z,9.20
2016-12-25T12:43:57.085Z,9.18
2016-12-25T12:44:18.817Z,9.20
2016-12-25T12:44:40.561Z,9.18
2016-12-25T12:45:02.299Z,9.18
2016-12-25T12:45:24.073Z,9.19
2016-12-25T12:45:45.808Z,9.19
2016-12-25T12:46:07.599Z,9.19
2016-12-25T12:46:29.362Z,9.18
2016-12-25T12:46:51.167Z,9.17
2016-12-25T12:47:12.910Z,9.17
2016-12-25T12:47:34.671Z,9.17
2016-12-25T12:47:56.412Z,9.17
2016-12-25T12:48:18.171Z,9.19
2016-12-25T12:48:39.913Z,9.19
2016-12-25T12:49:01.652Z,9.20
2016-12-25T12:49:23.425Z,9.17
2016-12-25T12:49:45.179Z,9.17
2016-12-25T12:50:06.934Z,9.19
2016-12-25T12:50:28.741Z,9.20
2016-12-25T12:50:50.485Z,9.19
2016-12-25T12:51:12.238Z,9.19
2016-12-25T12:51:38.746Z,9.19
2016-12-25T12:52:00.485Z,9.22
2016-12-25T12:52:22.226Z,9.21
2016-12-25T12:52:43.966Z,9.20
2016-12-25T12:53:05.720Z,9.20
2016-12-25T12:53:27.459Z,9.20
2016-12-25T12:53:49.291Z,9.20
2016-12-25T12:54:11.132Z,9.19
2016-12-25T12:54:32.901Z,9.17
2016-12-25T12:54:54.645Z,9.16
2016-12-25T12:55:16.396Z,9.17
2016-12-25T12:55:38.164Z,9.15
2016-12-25T12:55:59.918Z,9.15
2016-12-25T12:56:21.656Z,9.16
2016-12-25T12:56:43.650Z,9.16
2016-12-25T12:57:05.573Z,9.16
2016-12-25T12:57:27.325Z,9.17
2016-12-25T12:57:49.062Z,9.17
2016-12-25T12:58:10.820Z,9.16
2016-12-25T12:58:32.653Z,9.15
2016-12-25T12:58:54.746Z,9.17
2016-12-25T12:59:16.479Z,9.18
2016-12-25T12:59:38.228Z,9.16
2016-12-25T13:00:00.056Z,9.16
2016-12-25T13:00:21.880Z,9.15
2016-12-25T13:00:43.784Z,9.15
2016-12-25T13:01:05.923Z,9.15
2016-12-25T13:01:27.687Z,9.16
2016-12-25T13:01:49.466Z,9.15
2016-12-25T13:02:11.442Z,9.16
2016-12-25T13:02:33.314Z,9.14
2016-12-25T13:02:55.238Z,9.14
2016-12-25T13:03:17.010Z,9.15
2016-12-25T13:03:38.830Z,9.16
2016-12-25T13:04:00.593Z,9.17
2016-12-25T13:04:22.328Z,9.15
2016-12-25T13:04:44.108Z,9.14
2016-12-25T13:05:06.131Z,9.14
2016-12-25T13:05:27.878Z,9.15
2016-12-25T13:05:50.765Z,9.16
2016-12-25T13:06:12.554Z,9.15
2016-12-25T13:06:34.303Z,9.16
2016-12-25T13:06:56.061Z,9.14
2016-12-25T13:07:17.805Z,9.16
2016-12-25T13:07:44.372Z,9.16
2016-12-25T13:08:06.322Z,9.16
2016-12-25T13:08:28.075Z,9.16
2016-12-25T13:08:49.813Z,9.15
2016-12-25T13:09:11.553Z,9.15
2016-12-25T13:09:33.300Z,9.15
2016-12-25T13:09:56.071Z,9.16
2016-12-25T13:10:17.989Z,9.15
2016-12-25T13:10:39.819Z,9.15
2016-12-25T13:11:01.691Z,9.13
2016-12-25T13:11:23.605Z,9.13
2016-12-25T13:11:45.526Z,9.11
2016-12-25T13:12:07.386Z,9.11
2016-12-25T13:12:29.147Z,9.12
2016-12-25T13:12:50.897Z,9.11
2016-12-25T13:13:12.661Z,9.11
2016-12-25T13:13:34.407Z,9.12
2016-12-25T13:13:56.154Z,9.11
2016-12-25T13:14:17.903Z,9.12
2016-12-25T13:14:39.768Z,9.11
2016-12-25T13:15:01.519Z,9.14
2016-12-25T13:15:23.309Z,9.12
2016-12-25T13:15:45.057Z,9.13
2016-12-25T13:16:11.563Z,9.12
2016-12-25T13:16:33.332Z,9.12
2016-12-25T13:16:55.105Z,9.11
2016-12-25T13:17:16.894Z,9.12
2016-12-25T13:17:38.660Z,9.11
2016-12-25T13:18:00.393Z,9.12
2016-12-25T13:18:22.136Z,9.12
2016-12-25T13:18:43.903Z,9.11
2016-12-25T13:19:05.639Z,9.12
2016-12-25T13:19:27.376Z,9.14
2016-12-25T13:19:51.879Z,9.15
2016-12-25T13:20:13.619Z,9.12
2016-12-25T13:20:35.385Z,9.11
2016-12-25T13:20:57.128Z,9.12
2016-12-25T13:21:18.910Z,9.13
2016-12-25T13:21:40.770Z,9.12
2016-12-25T13:22:02.728Z,9.12
2016-12-25T13:22:24.543Z,9.11
2016-12-25T13:22:46.311Z,9.11
2016-12-25T13:23:08.064Z,9.12
2016-12-25T13:23:29.800Z,9.13
2016-12-25T13:23:56.302Z,9.11
2016-12-25T13:24:18.054Z,9.12
2016-12-25T13:24:39.800Z,9.12
2016-12-25T13:25:11.088Z,9.12
2016-12-25T13:25:33.918Z,9.11
2016-12-25T13:25:55.779Z,9.12
2016-12-25T13:26:17.546Z,9.12
2016-12-25T13:26:39.303Z,9.12
2016-12-25T13:27:01.039Z,9.14
2016-12-25T13:27:23.854Z,9.12
2016-12-25T13:27:45.716Z,9.13
2016-12-25T13:28:07.470Z,9.15
2016-12-25T13:28:29.212Z,9.12
2016-12-25T13:29:20.215Z,9.12
2016-12-25T13:29:41.981Z,9.12
2016-12-25T13:30:08.490Z,9.14
2016-12-25T13:30:30.271Z,9.14